createdAt,value
2019-06-25T00:00:24.387Z,824.45
2019-06-25T00:01:24.327Z,824.40
2019-06-25T00:02:24.352Z,824.48
2019-06-25T00:03:24.435Z,824.48
2019-06-25T00:04:24.402Z,824.45
2019-06-25T00:05:24.416Z,824.47
2019-06-25T00:06:24.439Z,824.49
2019-06-25T00:07:24.467Z,824.51
2019-06-25T00:08:24.483Z,824.50
2019-06-25T00:09:24.504Z,824.53
2019-06-25T00:10:24.527Z,824.49
2019-06-25T00:11:24.550Z,824.51
2019-06-25T00:12:24.571Z,824.49
2019-06-25T00:13:24.588Z,824.46
2019-06-25T00:14:24.620Z,824.46
2019-06-25T00:15:24.635Z,824.47
2019-06-25T00:16:24.666Z,824.49
2019-06-25T00:17:24.682Z,824.46
2019-06-25T00:18:24.702Z,824.46
2019-06-25T00:19:24.724Z,824.44
2019-06-25T00:20:24.748Z,824.42
2019-06-25T00:21:24.765Z,824.48
2019-06-25T00:22:24.796Z,824.46
2019-06-25T00:23:24.814Z,824.46
2019-06-25T00:24:24.833Z,824.46
2019-06-25T00:25:24.859Z,824.45
2019-06-25T00:26:24.929Z,824.41
2019-06-25T00:27:24.917Z,824.43
2019-06-25T00:28:24.921Z,824.45
2019-06-25T00:29:24.952Z,824.42
2019-06-25T00:30:24.967Z,824.44
2019-06-25T00:31:24.989Z,824.45
2019-06-25T00:32:25.008Z,824.48
2019-06-25T00:33:25.029Z,824.46
2019-06-25T00:34:25.276Z,824.47
2019-06-25T00:35:25.073Z,824.43
2019-06-25T00:36:25.093Z,824.46
2019-06-25T00:37:25.116Z,824.47
2019-06-25T00:38:25.143Z,824.47
2019-06-25T00:39:25.175Z,824.48
2019-06-25T00:40:25.189Z,824.49
2019-06-25T00:41:25.207Z,824.47
2019-06-25T00:42:25.224Z,824.47
2019-06-25T00:43:25.251Z,824.49
2019-06-25T00:44:25.268Z,824.46
2019-06-25T00:45:25.290Z,824.43
2019-06-25T00:46:25.315Z,824.46
2019-06-25T00:47:25.335Z,824.46
2019-06-25T00:48:25.356Z,824.51
2019-06-25T00:49:25.378Z,824.49
2019-06-25T00:50:25.405Z,824.51
2019-06-25T00:51:25.422Z,824.52
2019-06-25T00:52:25.449Z,824.52
2019-06-25T00:53:25.468Z,824.52
2019-06-25T00:54:25.492Z,824.49
2019-06-25T00:55:25.515Z,824.49
2019-06-25T00:56:25.532Z,824.49
2019-06-25T00:57:25.549Z,824.53
2019-06-25T00:58:25.571Z,824.53
2019-06-25T00:59:25.594Z,824.50
2019-06-25T01:00:25.623Z,824.50
2019-06-25T01:01:25.641Z,824.54
2019-06-25T01:02:25.664Z,824.54
2019-06-25T01:03:25.680Z,824.50
2019-06-25T01:04:25.701Z,824.54
2019-06-25T01:05:25.726Z,824.53
2019-06-25T01:06:25.747Z,824.50
2019-06-25T01:07:25.771Z,824.49
2019-06-25T01:08:25.850Z,824.50
2019-06-25T01:09:25.812Z,824.49
2019-06-25T01:10:25.834Z,824.46
2019-06-25T01:11:25.853Z,824.48
2019-06-25T01:12:25.876Z,824.49
2019-06-25T01:13:25.911Z,824.48
2019-06-25T01:14:25.921Z,824.50
2019-06-25T01:15:25.944Z,824.45
2019-06-25T01:16:25.957Z,824.46
2019-06-25T01:17:25.979Z,824.45
2019-06-25T01:18:26.017Z,824.44
2019-06-25T01:19:26.022Z,824.42
2019-06-25T01:20:26.050Z,824.44
2019-06-25T01:21:26.062Z,824.46
2019-06-25T01:22:26.085Z,824.44
2019-06-25T01:23:26.109Z,824.47
2019-06-25T01:24:26.127Z,824.48
2019-06-25T01:25:26.147Z,824.46
2019-06-25T01:26:26.172Z,824.45
2019-06-25T01:27:26.195Z,824.42
2019-06-25T01:28:26.215Z,824.47
2019-06-25T01:29:26.234Z,824.45
2019-06-25T01:30:29.942Z,824.45
2019-06-25T01:31:26.280Z,824.49
2019-06-25T01:32:26.298Z,824.46
2019-06-25T01:33:26.317Z,824.46
2019-06-25T01:34:26.342Z,824.44
2019-06-25T01:35:26.358Z,824.45
2019-06-25T01:36:26.382Z,824.44
2019-06-25T01:37:26.404Z,824.43
2019-06-25T01:38:26.422Z,824.46
2019-06-25T01:39:26.444Z,824.46
2019-06-25T01:40:26.464Z,824.44
2019-06-25T01:41:26.486Z,824.45
2019-06-25T01:42:26.505Z,824.45
2019-06-25T01:43:26.526Z,824.47
2019-06-25T01:44:26.547Z,824.52
2019-06-25T01:45:26.569Z,824.46
2019-06-25T01:46:26.588Z,824.50
2019-06-25T01:47:26.655Z,824.48
2019-06-25T01:48:26.634Z,824.45
2019-06-25T01:49:26.652Z,824.44
2019-06-25T01:50:26.668Z,824.46
2019-06-25T01:51:26.711Z,824.47
2019-06-25T01:52:26.712Z,824.47
2019-06-25T01:53:26.741Z,824.48
2019-06-25T01:54:26.756Z,824.47
2019-06-25T01:55:26.777Z,824.47
2019-06-25T01:56:26.797Z,824.50
2019-06-25T01:57:26.819Z,824.43
2019-06-25T01:58:26.835Z,824.45
2019-06-25T01:59:26.855Z,824.48
2019-06-25T02:00:26.878Z,824.44
2019-06-25T02:01:26.899Z,824.47
2019-06-25T02:02:26.927Z,824.47
2019-06-25T02:03:26.944Z,824.45
2019-06-25T02:04:26.965Z,824.44
2019-06-25T02:05:26.983Z,824.44
2019-06-25T02:06:27.006Z,824.42
2019-06-25T02:07:27.026Z,824.44
2019-06-25T02:08:27.045Z,824.46
2019-06-25T02:09:27.063Z,824.44
2019-06-25T02:10:27.087Z,824.45
2019-06-25T02:11:27.109Z,824.43
2019-06-25T02:12:27.129Z,824.45
2019-06-25T02:13:27.156Z,824.46
2019-06-25T02:14:27.173Z,824.45
2019-06-25T02:15:27.192Z,824.47
2019-06-25T02:16:27.207Z,824.45
2019-06-25T02:17:27.229Z,824.47
2019-06-25T02:18:29.303Z,824.47
2019-06-25T02:19:27.274Z,824.45
2019-06-25T02:20:27.293Z,824.48
2019-06-25T02:21:27.310Z,824.46
2019-06-25T02:22:27.330Z,824.50
2019-06-25T02:23:27.354Z,824.48
2019-06-25T02:24:27.380Z,824.47
2019-06-25T02:25:27.397Z,824.47
2019-06-25T02:26:27.420Z,824.45
2019-06-25T02:27:27.509Z,824.48
2019-06-25T02:28:27.455Z,824.47
2019-06-25T02:29:27.508Z,824.47
2019-06-25T02:30:27.502Z,824.49
2019-06-25T02:31:27.520Z,824.45
2019-06-25T02:32:27.542Z,824.47
2019-06-25T02:33:27.566Z,824.46
2019-06-25T02:34:27.584Z,824.42
2019-06-25T02:35:27.606Z,824.39
2019-06-25T02:36:27.636Z,824.41
2019-06-25T02:37:27.656Z,824.41
2019-06-25T02:38:27.703Z,824.41
2019-06-25T02:39:27.694Z,824.42
2019-06-25T02:40:27.711Z,824.41
2019-06-25T02:41:27.731Z,824.42
2019-06-25T02:42:27.746Z,824.47
2019-06-25T02:43:27.783Z,824.46
2019-06-25T02:44:27.787Z,824.46
2019-06-25T02:45:27.817Z,824.42
2019-06-25T02:46:27.836Z,824.42
2019-06-25T02:47:27.854Z,824.42
2019-06-25T02:48:27.871Z,824.43
2019-06-25T02:49:27.895Z,824.45
2019-06-25T02:50:27.913Z,824.52
2019-06-25T02:51:27.939Z,824.44
2019-06-25T02:52:27.975Z,824.46
2019-06-25T02:53:27.981Z,824.46
2019-06-25T02:54:27.998Z,824.49
2019-06-25T02:55:28.017Z,824.49
2019-06-25T02:56:28.034Z,824.52
2019-06-25T02:57:28.061Z,824.51
2019-06-25T02:58:28.084Z,824.52
2019-06-25T02:59:28.100Z,824.48
2019-06-25T03:00:28.121Z,824.48
2019-06-25T03:01:29.961Z,824.46
2019-06-25T03:02:28.160Z,824.47
2019-06-25T03:03:28.181Z,824.47
2019-06-25T03:04:28.202Z,824.46
2019-06-25T03:05:28.225Z,824.44
2019-06-25T03:06:28.244Z,824.44
2019-06-25T03:07:28.267Z,824.47
2019-06-25T03:08:28.282Z,824.48
2019-06-25T03:09:28.307Z,824.48
2019-06-25T03:10:28.325Z,824.46
2019-06-25T03:11:28.355Z,824.47
2019-06-25T03:12:28.391Z,824.49
2019-06-25T03:13:28.405Z,824.48
2019-06-25T03:14:28.421Z,824.50
2019-06-25T03:15:28.433Z,824.49
2019-06-25T03:16:28.472Z,824.45
2019-06-25T03:17:28.479Z,824.49
2019-06-25T03:18:28.501Z,824.47
2019-06-25T03:19:28.516Z,824.47
2019-06-25T03:20:28.548Z,824.50
2019-06-25T03:21:28.561Z,824.51
2019-06-25T03:22:28.572Z,824.52
2019-06-25T03:23:28.607Z,824.51
2019-06-25T03:24:28.617Z,824.50
2019-06-25T03:25:28.635Z,824.54
2019-06-25T03:26:28.660Z,824.50
2019-06-25T03:27:28.681Z,824.49
2019-06-25T03:28:28.703Z,824.48
2019-06-25T03:29:33.348Z,824.52
2019-06-25T03:30:28.753Z,824.52
2019-06-25T03:32:00.173Z,824.55
2019-06-25T03:32:28.793Z,824.52
2019-06-25T03:33:28.815Z,824.51
2019-06-25T03:34:28.827Z,824.50
2019-06-25T03:35:28.843Z,824.50
2019-06-25T03:36:28.862Z,824.53
2019-06-25T03:37:28.890Z,824.50
2019-06-25T03:38:28.908Z,824.54
2019-06-25T03:39:28.930Z,824.51
2019-06-25T03:40:28.946Z,824.54
2019-06-25T03:41:28.967Z,824.51
2019-06-25T03:42:28.988Z,824.53
2019-06-25T03:43:29.008Z,824.56
2019-06-25T03:44:29.033Z,824.52
2019-06-25T03:45:29.053Z,824.54
2019-06-25T03:46:29.067Z,824.52
2019-06-25T03:47:29.090Z,824.58
2019-06-25T03:48:29.116Z,824.58
2019-06-25T03:49:29.130Z,824.58
2019-06-25T03:50:29.151Z,824.59
2019-06-25T03:51:31.534Z,824.57
2019-06-25T03:52:29.193Z,824.61
2019-06-25T03:53:29.212Z,824.62
2019-06-25T03:54:29.235Z,824.59
2019-06-25T03:55:29.254Z,824.62
2019-06-25T03:56:29.285Z,824.62
2019-06-25T03:57:29.296Z,824.61
2019-06-25T03:58:29.318Z,824.64
2019-06-25T03:59:31.239Z,824.63
2019-06-25T04:00:29.362Z,824.64
2019-06-25T04:01:29.381Z,824.68
2019-06-25T04:02:29.397Z,824.67
2019-06-25T04:03:29.425Z,824.68
2019-06-25T04:04:29.442Z,824.68
2019-06-25T04:05:29.460Z,824.73
2019-06-25T04:06:29.486Z,824.74
2019-06-25T04:07:29.503Z,824.73
2019-06-25T04:08:29.522Z,824.77
2019-06-25T04:09:29.540Z,824.75
2019-06-25T04:10:29.564Z,824.78
2019-06-25T04:11:29.580Z,824.74
2019-06-25T04:12:29.606Z,824.78
2019-06-25T04:13:29.626Z,824.81
2019-06-25T04:14:29.640Z,824.78
2019-06-25T04:15:29.715Z,824.77
2019-06-25T04:16:29.684Z,824.77
2019-06-25T04:17:29.702Z,824.80
2019-06-25T04:18:29.758Z,824.79
2019-06-25T04:19:29.743Z,824.78
2019-06-25T04:20:29.767Z,824.79
2019-06-25T04:21:29.784Z,824.79
2019-06-25T04:22:29.811Z,824.77
2019-06-25T04:23:29.828Z,824.77
2019-06-25T04:24:29.849Z,824.80
2019-06-25T04:25:29.868Z,824.79
2019-06-25T04:26:29.888Z,824.82
2019-06-25T04:27:29.906Z,824.78
2019-06-25T04:28:29.925Z,824.75
2019-06-25T04:29:29.948Z,824.78
2019-06-25T04:30:29.979Z,824.78
2019-06-25T04:31:29.987Z,824.80
2019-06-25T04:32:33.760Z,824.80
2019-06-25T04:33:30.036Z,824.79
2019-06-25T04:34:30.055Z,824.81
2019-06-25T04:35:30.085Z,824.80
2019-06-25T04:36:30.092Z,824.79
2019-06-25T04:37:30.107Z,824.81
2019-06-25T04:38:30.129Z,824.81
2019-06-25T04:39:30.149Z,824.79
2019-06-25T04:40:30.166Z,824.83
2019-06-25T04:41:30.191Z,824.84
2019-06-25T04:42:30.212Z,824.84
2019-06-25T04:43:30.233Z,824.82
2019-06-25T04:44:30.251Z,824.84
2019-06-25T04:45:30.273Z,824.85
2019-06-25T04:46:30.294Z,824.85
2019-06-25T04:47:30.312Z,824.88
2019-06-25T04:48:30.334Z,824.89
2019-06-25T04:49:30.357Z,824.88
2019-06-25T04:50:30.371Z,824.90
2019-06-25T04:51:30.394Z,824.91
2019-06-25T04:52:30.415Z,824.89
2019-06-25T04:53:30.433Z,824.94
2019-06-25T04:54:30.455Z,824.93
2019-06-25T04:55:30.492Z,824.91
2019-06-25T04:56:30.492Z,824.94
2019-06-25T04:57:30.514Z,824.96
2019-06-25T04:58:30.537Z,824.96
2019-06-25T04:59:30.559Z,824.92
2019-06-25T05:00:30.578Z,824.99
2019-06-25T05:01:30.598Z,824.98
2019-06-25T05:02:30.635Z,824.96
2019-06-25T05:03:30.653Z,825.00
2019-06-25T05:04:30.658Z,824.99
2019-06-25T05:05:30.678Z,825.00
2019-06-25T05:06:30.704Z,825.02
2019-06-25T05:07:30.788Z,825.02
2019-06-25T05:08:30.739Z,825.01
2019-06-25T05:09:30.762Z,825.04
2019-06-25T05:10:30.782Z,825.05
2019-06-25T05:11:30.806Z,825.06
2019-06-25T05:12:30.822Z,825.05
2019-06-25T05:13:30.839Z,825.06
2019-06-25T05:14:30.860Z,825.10
2019-06-25T05:15:30.883Z,825.07
2019-06-25T05:16:30.903Z,825.10
2019-06-25T05:17:30.926Z,825.12
2019-06-25T05:18:30.941Z,825.12
2019-06-25T05:19:30.966Z,825.13
2019-06-25T05:20:30.985Z,825.10
2019-06-25T05:21:31.006Z,825.14
2019-06-25T05:22:31.026Z,825.17
2019-06-25T05:23:31.107Z,825.18
2019-06-25T05:24:31.065Z,825.15
2019-06-25T05:25:31.085Z,825.17
2019-06-25T05:26:31.104Z,825.19
2019-06-25T05:27:31.139Z,825.14
2019-06-25T05:28:31.145Z,825.20
2019-06-25T05:29:31.170Z,825.20
2019-06-25T05:30:31.191Z,825.17
2019-06-25T05:31:31.214Z,825.18
2019-06-25T05:32:31.228Z,825.14
2019-06-25T05:33:31.251Z,825.18
2019-06-25T05:34:31.271Z,825.17
2019-06-25T05:35:31.329Z,825.18
2019-06-25T05:36:31.313Z,825.22
2019-06-25T05:37:31.329Z,825.21
2019-06-25T05:38:31.352Z,825.25
2019-06-25T05:39:31.373Z,825.24
2019-06-25T05:40:31.394Z,825.24
2019-06-25T05:41:31.417Z,825.26
2019-06-25T05:42:31.436Z,825.26
2019-06-25T05:43:31.453Z,825.25
2019-06-25T05:44:31.478Z,825.27
2019-06-25T05:45:31.542Z,825.28
2019-06-25T05:46:31.516Z,825.29
2019-06-25T05:47:31.538Z,825.33
2019-06-25T05:48:31.558Z,825.33
2019-06-25T05:49:31.577Z,825.32
2019-06-25T05:50:31.601Z,825.31
2019-06-25T05:51:31.618Z,825.30
2019-06-25T05:52:31.639Z,825.35
2019-06-25T05:53:31.660Z,825.37
2019-06-25T05:54:31.681Z,825.39
2019-06-25T05:55:31.702Z,825.39
2019-06-25T05:56:31.733Z,825.36
2019-06-25T05:57:31.742Z,825.37
2019-06-25T05:58:31.763Z,825.39
2019-06-25T05:59:31.785Z,825.40
2019-06-25T06:00:31.805Z,825.41
2019-06-25T06:01:31.835Z,825.40
2019-06-25T06:02:31.847Z,825.41
2019-06-25T06:03:31.876Z,825.41
2019-06-25T06:04:31.890Z,825.42
2019-06-25T06:05:31.910Z,825.44
2019-06-25T06:06:31.927Z,825.46
2019-06-25T06:07:31.951Z,825.45
2019-06-25T06:08:31.970Z,825.51
2019-06-25T06:09:31.995Z,825.52
2019-06-25T06:10:32.013Z,825.56
2019-06-25T06:11:32.035Z,825.57
2019-06-25T06:12:32.059Z,825.54
2019-06-25T06:13:32.074Z,825.56
2019-06-25T06:14:32.098Z,825.56
2019-06-25T06:15:32.117Z,825.58
2019-06-25T06:16:32.224Z,825.57
2019-06-25T06:17:32.160Z,825.58
2019-06-25T06:18:32.184Z,825.56
2019-06-25T06:19:32.203Z,825.58
2019-06-25T06:20:32.231Z,825.55
2019-06-25T06:21:32.250Z,825.57
2019-06-25T06:22:32.291Z,825.59
2019-06-25T06:23:32.287Z,825.57
2019-06-25T06:24:32.311Z,825.61
2019-06-25T06:25:32.333Z,825.62
2019-06-25T06:26:32.356Z,825.62
2019-06-25T06:27:32.372Z,825.66
2019-06-25T06:28:32.393Z,825.62
2019-06-25T06:29:32.420Z,825.62
2019-06-25T06:30:35.694Z,825.63
2019-06-25T06:31:32.471Z,825.60
2019-06-25T06:32:32.477Z,825.60
2019-06-25T06:33:36.979Z,825.63
2019-06-25T06:34:32.521Z,825.63
2019-06-25T06:35:32.561Z,825.66
2019-06-25T06:36:32.564Z,825.69
2019-06-25T06:37:32.586Z,825.66
2019-06-25T06:38:32.605Z,825.72
2019-06-25T06:39:32.627Z,825.68
2019-06-25T06:40:32.668Z,825.68
2019-06-25T06:41:32.669Z,825.74
2019-06-25T06:42:32.717Z,825.73
2019-06-25T06:43:32.715Z,825.65
2019-06-25T06:44:32.739Z,825.69
2019-06-25T06:45:32.756Z,825.69
2019-06-25T06:46:32.777Z,825.71
2019-06-25T06:47:32.798Z,825.72
2019-06-25T06:48:32.819Z,825.73
2019-06-25T06:49:32.841Z,825.76
2019-06-25T06:50:32.864Z,825.76
2019-06-25T06:51:32.890Z,825.76
2019-06-25T06:52:32.909Z,825.78
2019-06-25T06:53:32.929Z,825.78
2019-06-25T06:54:32.952Z,825.77
2019-06-25T06:55:32.974Z,825.77
2019-06-25T06:56:32.999Z,825.80
2019-06-25T06:57:33.013Z,825.80
2019-06-25T06:58:33.049Z,825.79
2019-06-25T06:59:33.061Z,825.81
2019-06-25T07:00:33.081Z,825.81
2019-06-25T07:01:33.104Z,825.80
2019-06-25T07:02:33.125Z,825.79
2019-06-25T07:03:33.145Z,825.83
2019-06-25T07:04:33.170Z,825.81
2019-06-25T07:05:33.224Z,825.86
2019-06-25T07:06:33.213Z,825.86
2019-06-25T07:07:33.230Z,825.87
2019-06-25T07:08:33.269Z,825.84
2019-06-25T07:09:33.273Z,825.89
2019-06-25T07:10:33.299Z,825.86
2019-06-25T07:11:33.322Z,825.86
2019-06-25T07:12:33.341Z,825.84
2019-06-25T07:13:33.363Z,825.88
2019-06-25T07:14:33.387Z,825.91
2019-06-25T07:15:33.414Z,825.91
2019-06-25T07:16:33.490Z,825.89
2019-06-25T07:17:33.449Z,825.94
2019-06-25T07:18:33.475Z,825.94
2019-06-25T07:19:33.495Z,825.92
2019-06-25T07:20:34.223Z,825.95
2019-06-25T07:21:33.537Z,825.96
2019-06-25T07:22:33.563Z,825.94
2019-06-25T07:23:33.580Z,825.97
2019-06-25T07:24:33.602Z,825.94
2019-06-25T07:25:33.631Z,825.98
2019-06-25T07:26:33.648Z,825.96
2019-06-25T07:27:38.029Z,825.97
2019-06-25T07:28:33.990Z,825.96
2019-06-25T07:29:33.713Z,825.99
2019-06-25T07:30:33.746Z,825.98
2019-06-25T07:31:33.761Z,825.99
2019-06-25T07:32:33.785Z,825.98
2019-06-25T07:33:34.147Z,826.01
2019-06-25T07:34:33.821Z,825.99
2019-06-25T07:35:33.842Z,825.99
2019-06-25T07:36:33.874Z,826.00
2019-06-25T07:37:33.896Z,825.98
2019-06-25T07:38:33.913Z,826.04
2019-06-25T07:39:33.941Z,826.02
2019-06-25T07:40:33.954Z,826.04
2019-06-25T07:41:33.982Z,826.01
2019-06-25T07:42:34.007Z,826.02
2019-06-25T07:43:34.023Z,826.02
2019-06-25T07:44:34.044Z,826.05
2019-06-25T07:45:34.067Z,826.04
2019-06-25T07:46:34.085Z,826.04
2019-06-25T07:47:34.116Z,826.06
2019-06-25T07:48:34.132Z,826.06
2019-06-25T07:49:34.157Z,826.03
2019-06-25T07:50:34.175Z,826.05
2019-06-25T07:51:34.207Z,826.07
2019-06-25T07:52:34.221Z,826.05
2019-06-25T07:53:34.241Z,826.04
2019-06-25T07:54:34.268Z,826.05
2019-06-25T07:55:34.291Z,826.06
2019-06-25T07:56:36.988Z,826.05
2019-06-25T07:57:34.332Z,826.06
2019-06-25T07:58:34.357Z,826.07
2019-06-25T07:59:34.376Z,826.09
2019-06-25T08:00:34.402Z,826.06
2019-06-25T08:01:34.423Z,826.08
2019-06-25T08:02:34.445Z,826.06
2019-06-25T08:03:34.466Z,826.07
2019-06-25T08:04:34.499Z,826.06
2019-06-25T08:05:34.509Z,826.10
2019-06-25T08:06:34.533Z,826.05
2019-06-25T08:07:34.558Z,826.11
2019-06-25T08:08:34.587Z,826.06
2019-06-25T08:09:34.648Z,826.04
2019-06-25T08:10:34.621Z,826.09
2019-06-25T08:11:34.675Z,826.09
2019-06-25T08:12:34.670Z,826.11
2019-06-25T08:13:34.700Z,826.09
2019-06-25T08:14:34.716Z,826.13
2019-06-25T08:15:34.740Z,826.11
2019-06-25T08:16:34.765Z,826.14
2019-06-25T08:17:34.785Z,826.12
2019-06-25T08:18:34.804Z,826.13
2019-06-25T08:19:34.830Z,826.15
2019-06-25T08:20:34.853Z,826.14
2019-06-25T08:21:34.877Z,826.15
2019-06-25T08:22:34.897Z,826.16
2019-06-25T08:23:34.920Z,826.12
2019-06-25T08:24:34.945Z,826.14
2019-06-25T08:25:34.966Z,826.13
2019-06-25T08:26:34.987Z,826.13
2019-06-25T08:27:35.014Z,826.14
2019-06-25T08:28:35.034Z,826.14
2019-06-25T08:29:35.055Z,826.19
2019-06-25T08:30:35.080Z,826.16
2019-06-25T08:31:35.108Z,826.13
2019-06-25T08:32:35.125Z,826.16
2019-06-25T08:33:35.150Z,826.17
2019-06-25T08:34:41.881Z,826.16
2019-06-25T08:35:35.197Z,826.17
2019-06-25T08:36:35.219Z,826.17
2019-06-25T08:37:35.238Z,826.20
2019-06-25T08:38:35.270Z,826.19
2019-06-25T08:39:35.284Z,826.18
2019-06-25T08:40:35.314Z,826.16
2019-06-25T08:41:35.347Z,826.19
2019-06-25T08:42:35.356Z,826.17
2019-06-25T08:43:35.379Z,826.17
2019-06-25T08:44:35.438Z,826.17
2019-06-25T08:45:35.439Z,826.16
2019-06-25T08:46:35.455Z,826.13
2019-06-25T08:47:35.475Z,826.19
2019-06-25T08:48:35.494Z,826.18
2019-06-25T08:49:35.517Z,826.17
2019-06-25T08:50:35.543Z,826.18
2019-06-25T08:51:35.571Z,826.21
2019-06-25T08:52:35.608Z,826.22
2019-06-25T08:53:35.609Z,826.19
2019-06-25T08:54:35.638Z,826.24
2019-06-25T08:55:35.656Z,826.23
2019-06-25T08:56:35.683Z,826.22
2019-06-25T08:57:35.704Z,826.23
2019-06-25T08:58:35.729Z,826.22
2019-06-25T08:59:35.761Z,826.25
2019-06-25T09:00:35.778Z,826.26
2019-06-25T09:01:35.799Z,826.20
2019-06-25T09:02:35.825Z,826.24
2019-06-25T09:03:35.847Z,826.25
2019-06-25T09:04:35.870Z,826.25
2019-06-25T09:05:35.894Z,826.24
2019-06-25T09:06:35.915Z,826.31
2019-06-25T09:07:35.943Z,826.27
2019-06-25T09:08:35.968Z,826.29
2019-06-25T09:09:35.988Z,826.30
2019-06-25T09:10:36.010Z,826.30
2019-06-25T09:11:36.034Z,826.34
2019-06-25T09:12:36.062Z,826.32
2019-06-25T09:13:36.082Z,826.28
2019-06-25T09:14:36.111Z,826.31
2019-06-25T09:15:36.133Z,826.34
2019-06-25T09:16:36.153Z,826.34
2019-06-25T09:17:36.182Z,826.33
2019-06-25T09:18:36.206Z,826.33
2019-06-25T09:19:49.373Z,826.31
2019-06-25T09:20:36.256Z,826.35
2019-06-25T09:21:36.450Z,826.35
2019-06-25T09:22:36.300Z,826.31
2019-06-25T09:23:36.323Z,826.33
2019-06-25T09:24:36.346Z,826.34
2019-06-25T09:25:36.371Z,826.36
2019-06-25T09:26:36.395Z,826.40
2019-06-25T09:27:36.421Z,826.36
2019-06-25T09:28:36.442Z,826.39
2019-06-25T09:29:36.471Z,826.38
2019-06-25T09:30:37.319Z,826.37
2019-06-25T09:31:36.518Z,826.41
2019-06-25T09:32:36.576Z,826.48
2019-06-25T09:33:36.565Z,826.45
2019-06-25T09:34:36.651Z,826.46
2019-06-25T09:35:36.617Z,826.49
2019-06-25T09:36:36.638Z,826.50
2019-06-25T09:37:36.662Z,826.50
2019-06-25T09:38:36.686Z,826.52
2019-06-25T09:39:36.711Z,826.53
2019-06-25T09:40:36.753Z,826.56
2019-06-25T09:41:36.760Z,826.57
2019-06-25T09:42:36.816Z,826.57
2019-06-25T09:43:36.811Z,826.52
2019-06-25T09:44:36.833Z,826.56
2019-06-25T09:45:36.863Z,826.57
2019-06-25T09:46:36.889Z,826.60
2019-06-25T09:47:40.086Z,826.61
2019-06-25T09:48:36.930Z,826.57
2019-06-25T09:49:36.955Z,826.58
2019-06-25T09:50:36.983Z,826.60
2019-06-25T09:51:37.006Z,826.61
2019-06-25T09:52:37.030Z,826.59
2019-06-25T09:53:37.056Z,826.60
2019-06-25T09:54:37.267Z,826.59
2019-06-25T09:55:37.107Z,826.61
2019-06-25T09:56:37.136Z,826.61
2019-06-25T09:57:37.153Z,826.65
2019-06-25T09:58:37.180Z,826.63
2019-06-25T09:59:37.204Z,826.70
2019-06-25T10:00:37.233Z,826.67
2019-06-25T10:01:45.324Z,826.71
2019-06-25T10:02:37.285Z,826.72
2019-06-25T10:03:37.307Z,826.72
2019-06-25T10:04:37.333Z,826.73
2019-06-25T10:05:37.356Z,826.77
2019-06-25T10:06:37.386Z,826.75
2019-06-25T10:07:37.408Z,826.79
2019-06-25T10:08:37.432Z,826.77
2019-06-25T10:09:37.454Z,826.78
2019-06-25T10:10:37.526Z,826.78
2019-06-25T10:11:39.124Z,826.81
2019-06-25T10:12:37.646Z,826.80
2019-06-25T10:13:37.555Z,826.79
2019-06-25T10:14:37.585Z,826.83
2019-06-25T10:15:37.615Z,826.80
2019-06-25T10:16:37.635Z,826.80
2019-06-25T10:17:37.657Z,826.80
2019-06-25T10:18:44.476Z,826.86
2019-06-25T10:19:37.721Z,826.87
2019-06-25T10:20:37.750Z,826.87
2019-06-25T10:21:37.758Z,826.85
2019-06-25T10:22:37.791Z,826.86
2019-06-25T10:23:37.811Z,826.86
2019-06-25T10:24:37.838Z,826.89
2019-06-25T10:25:37.867Z,826.89
2019-06-25T10:26:37.890Z,826.90
2019-06-25T10:27:37.914Z,826.88
2019-06-25T10:28:39.441Z,826.90
2019-06-25T10:29:37.965Z,826.89
2019-06-25T10:30:38.020Z,826.91
2019-06-25T10:31:38.014Z,826.88
2019-06-25T10:32:38.044Z,826.89
2019-06-25T10:33:38.066Z,826.90
2019-06-25T10:34:38.093Z,826.89
2019-06-25T10:35:46.830Z,826.89
2019-06-25T10:36:38.164Z,826.90
2019-06-25T10:37:38.213Z,826.89
2019-06-25T10:38:38.195Z,826.92
2019-06-25T10:39:38.219Z,826.94
2019-06-25T10:40:38.245Z,826.95
2019-06-25T10:41:38.282Z,826.95
2019-06-25T10:42:38.305Z,826.97
2019-06-25T10:43:38.327Z,826.96
2019-06-25T10:44:38.349Z,826.94
2019-06-25T10:45:38.375Z,826.94
2019-06-25T10:46:38.406Z,826.94
2019-06-25T10:47:38.429Z,826.94
2019-06-25T10:48:38.462Z,826.93
2019-06-25T10:49:38.481Z,826.96
2019-06-25T10:50:38.516Z,826.96
2019-06-25T10:51:38.612Z,826.98
2019-06-25T10:52:38.563Z,827.00
2019-06-25T10:53:38.586Z,827.00
2019-06-25T10:54:38.628Z,826.97
2019-06-25T10:55:38.641Z,827.03
2019-06-25T10:56:38.666Z,827.00
2019-06-25T10:57:38.692Z,826.99
2019-06-25T10:58:38.723Z,827.00
2019-06-25T10:59:38.750Z,827.05
2019-06-25T11:00:38.776Z,827.03
2019-06-25T11:01:38.800Z,826.97
2019-06-25T11:02:38.829Z,827.03
2019-06-25T11:03:38.960Z,826.98
2019-06-25T11:04:38.946Z,827.06
2019-06-25T11:05:39.246Z,827.04
2019-06-25T11:06:38.965Z,827.03
2019-06-25T11:07:39.313Z,827.03
2019-06-25T11:08:38.992Z,827.03
2019-06-25T11:09:39.017Z,827.02
2019-06-25T11:10:39.054Z,827.06
2019-06-25T11:11:39.081Z,827.02
2019-06-25T11:12:39.106Z,827.02
2019-06-25T11:13:39.126Z,827.00
2019-06-25T11:14:39.156Z,827.02
2019-06-25T11:15:39.190Z,827.05
2019-06-25T11:16:39.212Z,827.06
2019-06-25T11:17:39.237Z,827.04
2019-06-25T11:18:39.265Z,827.07
2019-06-25T11:19:39.296Z,827.06
2019-06-25T11:20:39.320Z,827.04
2019-06-25T11:21:39.353Z,827.04
2019-06-25T11:22:39.378Z,827.06
2019-06-25T11:23:39.406Z,827.07
2019-06-25T11:24:39.433Z,827.07
2019-06-25T11:25:39.465Z,827.08
2019-06-25T11:26:39.493Z,827.04
2019-06-25T11:27:39.518Z,827.06
2019-06-25T11:28:39.554Z,827.08
2019-06-25T11:29:41.472Z,827.01
2019-06-25T11:30:39.790Z,827.06
2019-06-25T11:31:39.633Z,827.05
2019-06-25T11:32:39.661Z,827.04
2019-06-25T11:33:39.686Z,827.07
2019-06-25T11:34:39.719Z,827.14
2019-06-25T11:35:39.809Z,827.10
2019-06-25T11:36:39.775Z,827.08
2019-06-25T11:37:39.813Z,827.09
2019-06-25T11:38:39.880Z,827.04
2019-06-25T11:39:39.863Z,827.10
2019-06-25T11:40:39.932Z,827.10
2019-06-25T11:41:39.929Z,827.09
2019-06-25T11:42:39.948Z,827.11
2019-06-25T11:43:44.350Z,827.10
2019-06-25T11:44:40.006Z,827.12
2019-06-25T11:45:40.040Z,827.10
2019-06-25T11:46:40.060Z,827.09
2019-06-25T11:47:40.093Z,827.09
2019-06-25T11:48:40.116Z,827.09
2019-06-25T11:49:40.161Z,827.13
2019-06-25T11:50:40.175Z,827.08
2019-06-25T11:51:40.204Z,827.13
2019-06-25T11:52:40.237Z,827.14
2019-06-25T11:53:40.270Z,827.13
2019-06-25T11:54:40.295Z,827.13
2019-06-25T11:55:40.321Z,827.13
2019-06-25T11:56:40.357Z,827.13
2019-06-25T11:57:40.386Z,827.15
2019-06-25T11:58:40.412Z,827.13
2019-06-25T11:59:40.503Z,827.18
2019-06-25T12:00:40.480Z,827.19
2019-06-25T12:01:40.506Z,827.18
2019-06-25T12:02:40.533Z,827.18
2019-06-25T12:03:40.560Z,827.16
2019-06-25T12:04:40.592Z,827.21
2019-06-25T12:05:40.637Z,827.17
2019-06-25T12:06:53.229Z,827.22
2019-06-25T12:07:40.719Z,827.24
2019-06-25T12:08:40.711Z,827.20
2019-06-25T12:09:40.740Z,827.25
2019-06-25T12:10:40.772Z,827.22
2019-06-25T12:11:40.803Z,827.22
2019-06-25T12:12:40.826Z,827.19
2019-06-25T12:13:40.858Z,827.19
2019-06-25T12:14:40.888Z,827.15
2019-06-25T12:15:40.921Z,827.22
2019-06-25T12:16:40.955Z,827.19
2019-06-25T12:17:40.977Z,827.19
2019-06-25T12:18:41.009Z,827.22
2019-06-25T12:19:48.451Z,827.24
2019-06-25T12:20:41.068Z,827.24
2019-06-25T12:21:44.522Z,827.24
2019-06-25T12:22:41.126Z,827.26
2019-06-25T12:23:41.156Z,827.24
2019-06-25T12:24:41.185Z,827.26
2019-06-25T12:25:41.219Z,827.25
2019-06-25T12:26:41.324Z,827.26
2019-06-25T12:27:41.280Z,827.22
2019-06-25T12:28:41.307Z,827.29